Time;durP1;ratioP1;P1;durP2;ratioP2;P2;SDS_P1;SDS_P2;PMS_P1;PMS_P2;Temp;Humidity;BMP_temperature;BMP_pressure;BME280_temperature;BME280_humidity;BME280_pressure;Samples;Min_cycle;Max_cycle;Signal;HPM_P1;HPM_P2
2022/05/16 00:01:05;;;;;;;12.00;4.85;;;12.60;99.90;;;;;;5023978;28;20049;-73
2022/05/16 00:03:31;;;;;;;6.82;3.60;;;12.60;99.90;;;;;;5024396;28;20165;-73
2022/05/16 00:05:56;;;;;;;8.48;4.65;;;12.60;99.90;;;;;;5024520;28;20045;-74
2022/05/16 00:08:22;;;;;;;7.90;4.20;;;12.50;99.90;;;;;;5023635;28;20476;-73
2022/05/16 00:10:48;;;;;;;9.38;4.15;;;12.50;99.90;;;;;;5023296;28;20384;-73
2022/05/16 00:13:14;;;;;;;10.27;4.38;;;12.50;99.90;;;;;;5024974;28;20045;-73
2022/05/16 00:15:40;;;;;;;11.38;5.07;;;12.50;99.90;;;;;;5023933;28;20049;-73
2022/05/16 00:18:06;;;;;;;13.23;4.22;;;12.50;99.90;;;;;;5021990;28;20052;-73
2022/05/16 00:20:33;;;;;;;8.55;4.43;;;12.40;99.90;;;;;;5023736;28;20365;-73
2022/05/16 00:22:58;;;;;;;8.63;5.03;;;12.40;99.90;;;;;;5023756;28;20468;-72
2022/05/16 00:25:24;;;;;;;9.55;4.20;;;12.40;99.90;;;;;;5022635;28;20068;-73
2022/05/16 00:27:50;;;;;;;6.72;3.55;;;12.40;99.90;;;;;;5023510;28;20420;-72
2022/05/16 00:30:18;;;;;;;6.35;4.28;;;12.40;99.90;;;;;;5024769;28;20767;-73
2022/05/16 00:32:48;;;;;;;8.40;5.15;;;12.30;99.90;;;;;;5024376;28;20183;-73
2022/05/16 00:35:14;;;;;;;8.50;4.57;;;12.30;99.90;;;;;;5023626;28;20091;-73
2022/05/16 00:37:40;;;;;;;6.88;4.43;;;12.30;99.90;;;;;;5023837;28;20057;-73
2022/05/16 00:40:08;;;;;;;9.60;4.00;;;12.30;99.90;;;;;;5023099;28;20577;-73
2022/05/16 00:42:34;;;;;;;7.15;4.53;;;12.30;99.90;;;;;;5025022;28;20053;-73
2022/05/16 00:45:00;;;;;;;7.22;3.90;;;12.30;99.90;;;;;;5024089;28;20882;-73
2022/05/16 00:47:25;;;;;;;7.57;4.32;;;12.30;99.90;;;;;;5022804;28;20065;-73
2022/05/16 00:49:53;;;;;;;11.00;5.00;;;12.40;99.90;;;;;;5025204;28;20067;-73
2022/05/16 00:52:27;;;;;;;7.30;3.85;;;12.30;99.90;;;;;;5024636;28;20053;-73
2022/05/16 00:55:16;;;;;;;4.50;3.88;;;12.40;99.90;;;;;;5023183;28;20041;-74
2022/05/16 00:57:45;;;;;;;5.68;3.78;;;12.30;99.90;;;;;;5022743;28;20057;-73
2022/05/16 01:00:27;;;;;;;7.53;4.13;;;12.40;99.90;;;;;;5022989;28;20049;-73
2022/05/16 01:05:40;;;;;;;6.53;4.13;;;12.40;99.90;;;;;;5027954;28;20053;-74
2022/05/16 01:08:10;;;;;;;7.97;3.88;;;12.40;99.90;;;;;;5021408;28;20087;-73
2022/05/16 01:10:36;;;;;;;6.10;3.95;;;12.40;99.90;;;;;;5027281;28;20092;-74
2022/05/16 01:13:03;;;;;;;6.65;4.00;;;12.40;99.90;;;;;;5028351;28;20069;-73
2022/05/16 01:15:36;;;;;;;9.05;3.38;;;12.40;99.90;;;;;;5027846;28;20650;-73
2022/05/16 01:18:06;;;;;;;5.60;4.07;;;12.40;99.90;;;;;;5021256;28;20072;-74
2022/05/16 01:20:53;;;;;;;7.38;3.38;;;12.40;99.90;;;;;;5027850;28;20061;-74
2022/05/16 01:23:22;;;;;;;5.93;3.60;;;12.40;99.90;;;;;;5028079;28;20495;-74
2022/05/16 01:25:50;;;;;;;6.57;3.45;;;12.40;99.90;;;;;;5026784;28;20052;-74
2022/05/16 01:28:18;;;;;;;5.57;3.38;;;12.40;99.90;;;;;;5023188;28;20136;-73
2022/05/16 01:30:47;;;;;;;5.95;3.25;;;12.40;99.90;;;;;;5026659;28;20049;-74
2022/05/16 01:33:15;;;;;;;4.97;3.28;;;12.40;99.90;;;;;;5028048;28;20037;-74
2022/05/16 01:35:40;;;;;;;6.65;3.65;;;12.40;99.90;;;;;;5026065;28;20041;-74
2022/05/16 01:38:19;;;;;;;4.70;3.20;;;12.40;99.90;;;;;;5028119;28;20056;-74
2022/05/16 01:40:48;;;;;;;6.05;3.28;;;12.40;99.90;;;;;;5027755;28;20060;-73
2022/05/16 01:43:15;;;;;;;6.70;3.35;;;12.40;99.90;;;;;;5025525;28;20052;-73
2022/05/16 01:45:43;;;;;;;5.38;3.30;;;12.40;99.90;;;;;;5026971;28;20253;-73
2022/05/16 01:48:10;;;;;;;4.95;2.83;;;12.40;99.90;;;;;;5027921;28;20120;-74
2022/05/16 01:50:37;;;;;;;7.75;2.75;;;12.40;99.90;;;;;;5026063;28;20079;-74
2022/05/16 01:53:02;;;;;;;10.10;3.88;;;12.40;99.90;;;;;;5027813;28;20452;-73
2022/05/16 01:55:28;;;;;;;6.85;3.80;;;12.40;99.90;;;;;;5027717;28;20088;-73
2022/05/16 01:57:54;;;;;;;8.60;2.90;;;12.40;99.90;;;;;;5024979;28;20049;-73
2022/05/16 02:00:20;;;;;;;6.03;2.50;;;12.40;99.90;;;;;;5027480;28;20053;-73
2022/05/16 02:02:46;;;;;;;7.25;2.88;;;12.40;99.90;;;;;;5024838;28;20088;-74
2022/05/16 02:05:18;;;;;;;6.00;2.60;;;12.40;99.90;;;;;;5025992;28;20468;-73
2022/05/16 02:07:45;;;;;;;4.65;2.88;;;12.40;99.90;;;;;;5027309;28;20038;-74
2022/05/16 02:10:11;;;;;;;5.25;2.63;;;12.30;99.90;;;;;;5025334;28;20089;-74
2022/05/16 02:12:37;;;;;;;4.90;2.20;;;12.40;99.90;;;;;;5025966;28;20053;-73
2022/05/16 02:15:05;;;;;;;9.77;2.80;;;12.30;99.90;;;;;;5025408;28;20040;-73
2022/05/16 02:17:30;;;;;;;2.58;1.92;;;12.30;99.90;;;;;;5025375;28;20051;-73
2022/05/16 02:19:56;;;;;;;3.58;2.13;;;12.30;99.90;;;;;;5026358;28;20049;-74
2022/05/16 02:25:17;;;;;;;2.22;1.83;;;12.30;99.90;;;;;;4988512;28;20129;-73
2022/05/16 02:27:43;;;;;;;6.78;1.98;;;12.20;99.90;;;;;;5025548;28;20120;-73
2022/05/16 02:30:10;;;;;;;4.60;2.40;;;12.20;99.90;;;;;;5027192;28;20112;-73
2022/05/16 02:32:36;;;;;;;3.58;1.90;;;12.20;99.90;;;;;;5024662;28;20056;-73
2022/05/16 02:35:02;;;;;;;4.35;1.77;;;12.20;99.90;;;;;;5026602;28;20041;-73
2022/05/16 02:37:31;;;;;;;7.25;2.33;;;12.20;99.90;;;;;;5025829;28;20041;-73
2022/05/16 02:39:57;;;;;;;4.90;1.80;;;12.20;99.90;;;;;;5026354;28;20069;-72
2022/05/16 02:42:22;;;;;;;4.35;2.30;;;12.20;99.90;;;;;;5026801;28;20087;-73
2022/05/16 02:44:48;;;;;;;1.92;1.70;;;12.10;99.90;;;;;;5026816;28;20498;-73
2022/05/16 02:47:17;;;;;;;4.03;1.70;;;12.10;99.90;;;;;;5025781;28;20109;-73
2022/05/16 02:49:44;;;;;;;4.60;1.92;;;12.10;99.90;;;;;;5026342;28;20037;-73
2022/05/16 02:52:10;;;;;;;2.53;1.73;;;12.10;99.90;;;;;;5025870;28;20048;-73
2022/05/16 02:54:36;;;;;;;3.20;1.92;;;12.10;99.90;;;;;;5025278;28;20045;-73
2022/05/16 02:57:03;;;;;;;2.90;1.55;;;12.10;99.90;;;;;;5024939;28;20042;-73
2022/05/16 02:59:32;;;;;;;2.90;1.92;;;12.00;99.90;;;;;;5024555;28;20519;-73
2022/05/16 03:02:03;;;;;;;3.15;1.92;;;12.00;99.90;;;;;;5025122;28;20128;-73
2022/05/16 03:04:30;;;;;;;2.95;1.38;;;12.00;99.90;;;;;;5025462;28;20404;-73
2022/05/16 03:06:56;;;;;;;2.22;1.77;;;12.00;99.90;;;;;;5024084;28;20209;-72
2022/05/16 03:09:23;;;;;;;8.57;1.63;;;11.90;99.90;;;;;;5024887;28;20072;-73
2022/05/16 03:11:49;;;;;;;3.05;1.42;;;11.90;99.90;;;;;;5026115;28;20099;-73
2022/05/16 03:14:15;;;;;;;5.00;1.52;;;11.90;99.90;;;;;;5025308;28;20041;-73
2022/05/16 03:16:40;;;;;;;5.63;1.67;;;11.90;99.90;;;;;;5025930;28;20434;-73
2022/05/16 03:19:06;;;;;;;3.10;1.88;;;11.80;99.90;;;;;;5025933;28;20048;-73
2022/05/16 03:21:32;;;;;;;6.03;1.95;;;11.80;99.90;;;;;;5024851;28;20050;-72
2022/05/16 03:23:59;;;;;;;4.65;1.70;;;11.80;99.90;;;;;;5024849;28;20065;-73
2022/05/16 03:26:25;;;;;;;3.72;1.80;;;11.80;99.90;;;;;;5022084;28;20045;-73
2022/05/16 03:28:51;;;;;;;2.20;1.45;;;11.70;99.90;;;;;;5021233;28;20697;-73
2022/05/16 03:31:17;;;;;;;2.90;1.80;;;11.70;99.90;;;;;;5025694;28;20633;-73
2022/05/16 03:33:43;;;;;;;3.15;1.75;;;11.70;99.90;;;;;;5024121;28;20472;-73
2022/05/16 03:36:09;;;;;;;2.00;1.67;;;11.70;99.90;;;;;;5025493;28;20038;-72
2022/05/16 03:41:20;;;;;;;4.13;1.90;;;11.70;99.90;;;;;;5023322;28;20438;-73
2022/05/16 03:43:46;;;;;;;4.22;2.25;;;11.70;99.90;;;;;;5025492;28;20249;-73
2022/05/16 03:46:12;;;;;;;6.72;2.22;;;11.70;99.90;;;;;;5024381;28;20107;-73
2022/05/16 03:48:38;;;;;;;4.60;1.58;;;11.70;99.90;;;;;;5023435;28;20600;-73
2022/05/16 03:51:06;;;;;;;4.70;1.83;;;11.70;99.90;;;;;;5025694;28;20034;-73
2022/05/16 03:53:31;;;;;;;6.28;1.77;;;11.70;99.90;;;;;;5023955;28;20574;-73
2022/05/16 03:55:57;;;;;;;4.60;1.92;;;11.70;99.90;;;;;;5024184;28;20041;-73
2022/05/16 03:58:23;;;;;;;3.22;1.73;;;11.70;99.90;;;;;;5023941;28;20049;-73
2022/05/16 04:00:49;;;;;;;2.90;1.80;;;11.70;99.90;;;;;;5023945;28;20049;-73
2022/05/16 04:03:14;;;;;;;2.63;1.85;;;11.70;99.90;;;;;;5023275;28;20042;-73
2022/05/16 04:05:40;;;;;;;2.35;1.90;;;11.70;99.90;;;;;;5025504;28;20395;-73
2022/05/16 04:08:06;;;;;;;3.10;1.52;;;11.70;99.90;;;;;;5024214;28;20033;-73
2022/05/16 04:10:32;;;;;;;2.40;1.70;;;11.70;99.90;;;;;;5024997;28;20144;-73
2022/05/16 04:12:58;;;;;;;1.75;1.50;;;11.70;99.90;;;;;;5025560;28;20049;-73
2022/05/16 04:15:23;;;;;;;2.33;1.42;;;11.70;99.90;;;;;;5025615;28;20045;-73
2022/05/16 04:17:49;;;;;;;4.88;1.80;;;11.70;99.90;;;;;;5022985;28;20041;-73
2022/05/16 04:20:16;;;;;;;5.32;1.90;;;11.70;99.90;;;;;;5023769;28;20053;-73
2022/05/16 04:22:42;;;;;;;3.10;1.80;;;11.70;99.90;;;;;;5025368;28;20056;-73
2022/05/16 04:25:10;;;;;;;3.28;1.80;;;11.70;99.90;;;;;;5024442;28;20053;-73
2022/05/16 04:27:36;;;;;;;5.53;2.22;;;11.70;99.90;;;;;;5025462;28;20056;-73
2022/05/16 04:30:02;;;;;;;10.25;2.47;;;11.80;99.90;;;;;;5023562;28;20038;-73
2022/05/16 04:32:28;;;;;;;3.05;1.50;;;11.80;99.90;;;;;;5024684;28;20049;-73
2022/05/16 04:34:53;;;;;;;5.68;1.90;;;11.80;99.90;;;;;;5024944;28;20381;-73
2022/05/16 04:37:19;;;;;;;2.90;1.70;;;11.80;99.90;;;;;;5024720;28;20052;-73
2022/05/16 04:39:45;;;;;;;2.75;1.73;;;11.80;99.90;;;;;;5028136;28;20049;-73
2022/05/16 04:44:54;;;;;;;3.60;1.80;;;11.90;99.90;;;;;;5024639;28;20049;-73
2022/05/16 04:47:20;;;;;;;6.15;1.90;;;11.90;99.90;;;;;;5030704;28;20404;-73
2022/05/16 04:49:45;;;;;;;4.68;1.67;;;12.00;99.90;;;;;;5027225;28;20129;-73
2022/05/16 04:52:11;;;;;;;3.20;1.70;;;12.10;99.90;;;;;;5028119;28;20045;-74
2022/05/16 04:54:38;;;;;;;3.70;1.80;;;12.20;99.90;;;;;;5027630;28;20048;-73
2022/05/16 04:57:04;;;;;;;5.80;1.50;;;12.20;99.90;;;;;;5024353;28;20045;-72
2022/05/16 04:59:30;;;;;;;3.17;1.60;;;12.20;99.90;;;;;;5026884;28;20140;-73
2022/05/16 05:01:55;;;;;;;4.95;1.75;;;12.30;99.90;;;;;;5027590;28;20064;-73
2022/05/16 05:04:21;;;;;;;3.55;1.85;;;12.40;99.90;;;;;;5028434;28;20047;-73
2022/05/16 05:06:48;;;;;;;2.92;1.60;;;12.40;99.90;;;;;;5027833;28;20125;-73
2022/05/16 05:09:13;;;;;;;2.92;1.70;;;12.40;99.90;;;;;;5021697;28;20091;-73
2022/05/16 05:14:32;;;;;;;4.28;2.45;;;12.50;99.90;;;;;;5026363;28;20053;-73
2022/05/16 05:16:59;;;;;;;2.70;1.52;;;12.50;99.90;;;;;;5025377;28;20052;-73
2022/05/16 05:19:25;;;;;;;2.58;2.10;;;12.60;99.90;;;;;;5028395;28;20121;-72
2022/05/16 05:21:50;;;;;;;2.25;1.58;;;12.60;99.90;;;;;;5027129;28;20510;-73
2022/05/16 05:24:19;;;;;;;3.00;2.17;;;12.60;99.90;;;;;;5026867;28;20542;-73
2022/05/16 05:26:46;;;;;;;1.85;1.60;;;12.60;99.90;;;;;;5027361;28;20103;-74
2022/05/16 05:29:12;;;;;;;4.53;1.98;;;12.60;99.90;;;;;;5027799;28;20633;-73
2022/05/16 05:31:39;;;;;;;2.65;1.80;;;12.70;99.90;;;;;;5027591;28;20063;-73
2022/05/16 05:34:05;;;;;;;2.85;1.80;;;12.70;99.90;;;;;;5026139;28;20452;-73
2022/05/16 05:36:31;;;;;;;4.32;2.20;;;12.70;99.90;;;;;;5026928;28;20063;-73
2022/05/16 05:38:58;;;;;;;3.85;2.05;;;12.70;99.90;;;;;;5027589;28;20496;-73
2022/05/16 05:41:24;;;;;;;5.80;2.30;;;12.80;99.90;;;;;;5025999;28;20045;-73
2022/05/16 05:43:50;;;;;;;4.80;2.22;;;12.80;99.90;;;;;;5025974;28;20444;-73
2022/05/16 05:46:16;;;;;;;3.15;2.38;;;12.80;99.90;;;;;;5026347;28;20084;-73
2022/05/16 05:48:43;;;;;;;5.03;2.22;;;12.90;99.90;;;;;;5025890;28;20045;-73
2022/05/16 05:51:09;;;;;;;5.60;2.17;;;13.00;99.90;;;;;;5027901;28;20033;-73
2022/05/16 05:53:37;;;;;;;5.63;2.20;;;13.00;99.90;;;;;;5026288;28;20059;-73
2022/05/16 05:56:06;;;;;;;2.33;2.03;;;13.10;99.90;;;;;;5025814;28;20041;-73
2022/05/16 05:58:36;;;;;;;8.18;3.10;;;13.10;99.90;;;;;;5029081;28;20049;-74
2022/05/16 06:01:02;;;;;;;3.05;1.83;;;13.10;99.90;;;;;;5022384;28;20053;-74
2022/05/16 06:03:28;;;;;;;2.80;1.80;;;13.20;99.90;;;;;;5024697;28;20041;-73
2022/05/16 06:05:54;;;;;;;4.72;2.28;;;13.20;99.90;;;;;;5025930;28;20411;-73
2022/05/16 06:08:20;;;;;;;5.95;1.88;;;13.20;99.90;;;;;;5027361;28;20084;-73
2022/05/16 06:10:47;;;;;;;7.18;2.63;;;13.20;99.90;;;;;;5026450;28;20053;-73
2022/05/16 06:13:13;;;;;;;5.13;2.05;;;13.30;99.90;;;;;;5025880;28;20075;-73
2022/05/16 06:15:38;;;;;;;4.10;2.45;;;13.30;99.90;;;;;;5026073;28;20484;-73
2022/05/16 06:18:04;;;;;;;3.17;2.10;;;13.30;99.90;;;;;;5026521;28;20073;-73
2022/05/16 06:20:30;;;;;;;3.38;1.77;;;13.30;99.90;;;;;;5025824;28;20408;-73
2022/05/16 06:22:56;;;;;;;4.32;2.17;;;13.40;99.90;;;;;;5027270;28;20029;-73
2022/05/16 06:25:31;;;;;;;4.10;2.15;;;13.50;99.90;;;;;;5023894;28;20092;-73
2022/05/16 06:28:14;;;;;;;5.72;2.00;;;13.60;99.90;;;;;;5023771;28;20056;-73
2022/05/16 06:30:45;;;;;;;6.53;2.53;;;13.70;99.90;;;;;;5022844;28;20471;-73
2022/05/16 06:33:12;;;;;;;3.58;2.30;;;13.90;99.90;;;;;;5025215;28;20480;-73
2022/05/16 06:35:38;;;;;;;6.03;2.22;;;14.00;99.90;;;;;;5026775;28;20492;-73
2022/05/16 06:38:12;;;;;;;5.80;2.58;;;14.20;99.90;;;;;;5027412;28;20500;-73
2022/05/16 06:40:39;;;;;;;4.05;2.45;;;14.30;99.90;;;;;;5025300;28;20053;-73
2022/05/16 06:43:06;;;;;;;4.63;1.95;;;14.40;99.90;;;;;;5021889;28;20203;-73
2022/05/16 06:45:31;;;;;;;6.22;2.15;;;14.50;99.90;;;;;;5025046;28;20099;-74
2022/05/16 06:47:57;;;;;;;5.80;2.50;;;14.60;99.90;;;;;;5023281;28;20042;-73
2022/05/16 06:50:23;;;;;;;9.27;2.42;;;14.70;99.90;;;;;;5026485;28;20420;-73
2022/05/16 06:52:49;;;;;;;7.20;2.38;;;14.90;99.90;;;;;;5024324;28;20446;-73
2022/05/16 06:55:15;;;;;;;4.63;2.42;;;15.00;99.90;;;;;;5021582;28;20075;-73
2022/05/16 06:57:40;;;;;;;6.22;2.80;;;15.10;99.90;;;;;;5024962;28;20088;-74
2022/05/16 07:00:08;;;;;;;4.07;2.17;;;15.20;99.90;;;;;;5024546;28;20468;-73
2022/05/16 07:02:33;;;;;;;4.18;2.55;;;15.40;99.90;;;;;;5026254;28;20080;-73
2022/05/16 07:05:00;;;;;;;4.97;2.60;;;15.50;99.90;;;;;;5025041;28;20076;-73
2022/05/16 07:07:27;;;;;;;4.32;1.98;;;15.60;99.90;;;;;;5024074;28;20085;-73
2022/05/16 07:09:53;;;;;;;3.85;2.22;;;15.70;99.90;;;;;;5024791;28;20568;-73
2022/05/16 07:12:19;;;;;;;7.95;2.72;;;15.90;99.90;;;;;;5024519;28;20057;-74
2022/05/16 07:14:45;;;;;;;8.80;2.83;;;16.10;99.90;;;;;;5024858;28;20125;-74
2022/05/16 07:17:12;;;;;;;8.98;2.92;;;16.30;99.90;;;;;;5025615;28;20051;-74
2022/05/16 07:19:38;;;;;;;6.20;2.67;;;16.40;99.90;;;;;;5025063;28;20041;-74
2022/05/16 07:22:10;;;;;;;7.15;3.20;;;16.40;99.90;;;;;;5025273;28;20128;-73
2022/05/16 07:24:36;;;;;;;5.30;2.28;;;16.50;99.90;;;;;;5022470;28;20038;-73
2022/05/16 07:29:45;;;;;;;4.85;1.95;;;16.70;99.90;;;;;;5026681;28;20053;-74
2022/05/16 07:32:11;;;;;;;5.55;2.60;;;16.90;99.90;;;;;;5025374;28;20160;-74
2022/05/16 07:34:38;;;;;;;5.28;2.65;;;16.90;99.90;;;;;;5024833;28;20049;-74
2022/05/16 07:37:04;;;;;;;7.80;2.50;;;16.90;99.90;;;;;;5024959;28;20073;-74
2022/05/16 07:39:30;;;;;;;6.65;2.30;;;17.00;99.90;;;;;;5026677;28;20455;-74
2022/05/16 07:41:55;;;;;;;6.97;2.80;;;17.10;99.90;;;;;;5025904;28;20049;-74
2022/05/16 07:44:21;;;;;;;4.78;2.47;;;17.20;99.90;;;;;;5024979;28;20053;-75
2022/05/16 07:46:47;;;;;;;7.32;2.20;;;17.30;99.90;;;;;;5026618;28;20048;-75
2022/05/16 07:49:13;;;;;;;5.80;2.55;;;17.40;99.90;;;;;;5037344;28;20487;-75
2022/05/16 07:51:40;;;;;;;3.53;1.85;;;17.50;99.90;;;;;;5042443;28;20060;-75
2022/05/16 07:54:08;;;;;;;6.80;2.58;;;17.60;99.90;;;;;;5033939;28;20060;-74
2022/05/16 07:56:34;;;;;;;6.47;2.63;;;17.70;99.90;;;;;;5023955;28;20045;-75
2022/05/16 07:59:00;;;;;;;5.65;2.22;;;17.90;99.90;;;;;;5023714;28;20050;-75
2022/05/16 08:01:26;;;;;;;5.93;2.33;;;18.00;99.90;;;;;;5023140;28;20061;-75
2022/05/16 08:03:53;;;;;;;10.25;2.85;;;18.20;99.90;;;;;;5024679;28;20396;-75
2022/05/16 08:06:18;;;;;;;7.70;2.70;;;18.30;99.90;;;;;;5021302;28;20056;-75
2022/05/16 08:11:28;;;;;;;4.20;2.20;;;18.50;99.90;;;;;;5025562;28;20050;-75
2022/05/16 08:13:53;;;;;;;9.77;3.28;;;18.60;99.90;;;;;;5031281;28;20055;-73
2022/05/16 08:16:19;;;;;;;4.82;2.10;;;18.70;99.90;;;;;;5027268;28;20124;-73
2022/05/16 08:18:45;;;;;;;8.02;2.22;;;18.80;99.90;;;;;;5028781;28;20049;-73
2022/05/16 08:21:11;;;;;;;4.32;2.40;;;19.00;99.90;;;;;;5029009;28;20041;-73
2022/05/16 08:23:37;;;;;;;7.03;2.38;;;19.10;99.90;;;;;;5028448;28;20057;-74
2022/05/16 08:26:04;;;;;;;10.60;2.58;;;19.30;99.90;;;;;;5029088;28;20136;-74
2022/05/16 08:28:31;;;;;;;5.30;2.13;;;19.40;99.90;;;;;;5030166;28;20049;-74
2022/05/16 08:30:57;;;;;;;8.30;2.85;;;19.50;99.90;;;;;;5030464;28;20045;-74
2022/05/16 08:33:23;;;;;;;8.18;2.58;;;19.60;99.90;;;;;;5030380;28;20521;-71
2022/05/16 08:39:52;;;;;;;6.95;2.15;;;19.70;99.90;;;;;;5030584;28;20040;-77
2022/05/16 08:41:23;;;;;;;6.80;2.40;;;20.10;99.90;;;;;;5030343;28;20075;-74
2022/05/16 08:44:12;;;;;;;8.48;2.85;;;20.00;99.90;;;;;;5030509;28;20550;-74
2022/05/16 08:46:48;;;;;;;9.40;2.65;;;20.20;99.90;;;;;;5029623;28;20045;-74
2022/05/16 08:49:21;;;;;;;7.38;2.17;;;20.40;99.90;;;;;;5024540;28;20029;-75
2022/05/16 08:51:54;;;;;;;5.13;2.50;;;20.90;99.90;;;;;;5024146;28;20415;-74
2022/05/16 08:54:31;;;;;;;6.53;2.38;;;20.60;99.90;;;;;;5030084;28;20053;-75
2022/05/16 08:57:00;;;;;;;6.05;2.70;;;20.60;99.90;;;;;;5012607;28;20133;-70
2022/05/16 08:59:26;;;;;;;6.47;2.15;;;20.50;99.90;;;;;;5026395;28;20100;-70
2022/05/16 09:02:16;;;;;;;8.27;2.78;;;20.50;99.90;;;;;;5025546;28;20055;-70
2022/05/16 09:05:02;;;;;;;7.80;2.45;;;20.40;99.90;;;;;;5010849;28;20103;-69
2022/05/16 09:07:40;;;;;;;7.72;2.10;;;20.30;99.90;;;;;;5026151;28;20087;-69
2022/05/16 09:10:43;;;;;;;9.40;2.95;;;20.20;99.90;;;;;;5027472;28;20042;-69
2022/05/16 09:14:00;;;;;;;7.88;3.13;;;20.10;99.90;;;;;;5022493;28;20507;-69
2022/05/16 09:16:38;;;;;;;5.43;2.88;;;20.00;99.90;;;;;;4992323;28;20061;-69
2022/05/16 09:19:37;;;;;;;9.95;2.90;;;19.90;99.90;;;;;;5023110;28;20042;-69
2022/05/16 09:22:24;;;;;;;6.00;2.58;;;19.90;99.90;;;;;;5025649;28;20127;-69
2022/05/16 09:24:55;;;;;;;7.25;2.85;;;20.10;99.90;;;;;;5021247;28;20053;-70
2022/05/16 09:30:19;;;;;;;7.28;2.58;;;20.40;99.90;;;;;;5013731;28;20045;-69
2022/05/16 09:32:49;;;;;;;7.07;2.60;;;20.70;99.90;;;;;;5013327;28;20278;-70
2022/05/16 09:35:33;;;;;;;5.43;3.20;;;21.40;99.90;;;;;;5013550;28;20503;-70
2022/05/16 09:37:59;;;;;;;7.97;2.72;;;21.20;99.90;;;;;;5015398;28;20120;-69
2022/05/16 09:40:33;;;;;;;8.30;2.35;;;21.30;99.90;;;;;;5014656;28;20099;-69
2022/05/16 09:43:08;;;;;;;8.80;2.40;;;21.50;99.90;;;;;;5021387;28;20054;-70
2022/05/16 09:45:35;;;;;;;12.52;2.80;;;21.70;99.70;;;;;;5013984;28;20401;-70
2022/05/16 09:48:13;;;;;;;9.13;3.25;;;21.70;99.10;;;;;;5026638;28;20111;-70
2022/05/16 09:50:39;;;;;;;6.43;2.60;;;22.60;98.20;;;;;;5024754;28;20491;-70
2022/05/16 09:53:09;;;;;;;5.05;2.03;;;23.40;99.50;;;;;;5014314;28;20069;-70
2022/05/16 09:55:52;;;;;;;6.75;2.65;;;22.00;97.70;;;;;;5026750;28;20059;-70
2022/05/16 09:58:46;;;;;;;7.90;2.17;;;22.10;97.70;;;;;;5023002;28;20058;-71
2022/05/16 10:01:27;;;;;;;9.30;2.67;;;23.00;99.30;;;;;;5020607;28;20049;-70
2022/05/16 10:03:52;;;;;;;6.68;2.63;;;22.50;98.50;;;;;;5025676;28;20049;-70
2022/05/16 10:06:30;;;;;;;7.18;2.15;;;22.70;97.20;;;;;;5024983;28;20633;-71
2022/05/16 10:09:01;;;;;;;7.30;2.33;;;22.80;97.80;;;;;;5021148;28;20045;-70
2022/05/16 10:11:29;;;;;;;8.65;2.40;;;23.00;96.80;;;;;;5025593;28;20074;-70
2022/05/16 10:13:55;;;;;;;5.65;2.60;;;23.00;97.80;;;;;;5024781;28;20048;-72
2022/05/16 10:16:24;;;;;;;11.23;3.05;;;23.00;96.10;;;;;;5026106;28;20041;-71
2022/05/16 10:18:53;;;;;;;7.75;2.40;;;23.00;96.40;;;;;;5021518;28;20126;-71
2022/05/16 10:21:23;;;;;;;5.15;2.33;;;23.00;95.50;;;;;;5023093;28;20128;-71
2022/05/16 10:23:50;;;;;;;11.13;3.20;;;24.00;92.80;;;;;;5023913;28;20072;-71
2022/05/16 10:26:24;;;;;;;11.25;3.33;;;22.70;93.30;;;;;;5025073;28;20053;-71
2022/05/16 10:28:58;;;;;;;5.82;2.25;;;22.50;91.60;;;;;;5026586;28;20575;-72
2022/05/16 10:34:35;;;;;;;6.72;2.00;;;22.50;92.80;;;;;;5022869;28;20408;-71
2022/05/16 10:37:02;;;;;;;10.00;2.65;;;22.60;94.50;;;;;;5026101;28;20719;-71
2022/05/16 10:39:30;;;;;;;8.50;2.80;;;22.80;95.80;;;;;;5025326;28;20049;-71
2022/05/16 10:42:14;;;;;;;9.52;2.53;;;22.90;94.40;;;;;;5026022;28;20051;-70
2022/05/16 10:44:56;;;;;;;7.90;2.85;;;23.10;91.80;;;;;;5022758;28;20393;-71
2022/05/16 10:47:29;;;;;;;5.68;2.58;;;23.40;92.30;;;;;;5019436;28;20160;-71
2022/05/16 10:50:10;;;;;;;5.10;2.38;;;23.70;91.70;;;;;;5022755;28;20380;-70
2022/05/16 10:53:01;;;;;;;6.80;3.08;;;24.00;86.20;;;;;;5022394;28;20553;-71
2022/05/16 10:55:48;;;;;;;16.02;3.05;;;24.10;81.90;;;;;;5015047;28;20061;-71
2022/05/16 10:58:48;;;;;;;7.95;2.58;;;24.00;82.20;;;;;;5020240;28;20054;-70
2022/05/16 11:01:21;;;;;;;7.05;2.80;;;23.80;77.00;;;;;;5025380;28;20045;-71
2022/05/16 11:04:16;;;;;;;4.97;2.55;;;23.80;77.30;;;;;;5023049;28;20045;-71
2022/05/16 11:07:16;;;;;;;10.38;2.47;;;23.80;76.50;;;;;;5026136;28;20037;-71
2022/05/16 11:09:51;;;;;;;7.72;2.92;;;23.80;77.50;;;;;;5023244;28;20049;-71
2022/05/16 11:12:46;;;;;;;6.97;2.70;;;23.80;75.80;;;;;;5024754;28;20053;-71
2022/05/16 11:15:42;;;;;;;8.38;2.42;;;23.80;77.80;;;;;;5019514;28;20041;-71
2022/05/16 11:18:43;;;;;;;9.43;2.58;;;23.80;74.30;;;;;;5025438;28;20128;-71
2022/05/16 11:21:34;;;;;;;4.85;2.25;;;23.70;76.60;;;;;;5002436;28;20092;-72
2022/05/16 11:24:15;;;;;;;6.30;2.28;;;23.70;77.40;;;;;;5025751;28;20400;-72
2022/05/16 11:26:58;;;;;;;7.10;2.40;;;23.50;78.60;;;;;;5014474;28;20111;-73
2022/05/16 11:29:51;;;;;;;7.85;2.33;;;23.40;78.00;;;;;;5025536;28;20038;-72
2022/05/16 11:32:39;;;;;;;6.47;2.10;;;23.40;79.70;;;;;;5019503;28;20586;-71
2022/05/16 11:35:39;;;;;;;3.60;1.77;;;23.30;80.40;;;;;;5021189;28;20583;-71
2022/05/16 11:38:23;;;;;;;5.63;2.10;;;23.30;84.50;;;;;;5035583;28;20495;-70
2022/05/16 11:40:51;;;;;;;7.07;2.92;;;23.30;82.90;;;;;;5020795;28;20546;-71
2022/05/16 11:43:28;;;;;;;3.85;1.88;;;23.30;83.70;;;;;;5018470;28;20402;-71
2022/05/16 11:46:37;;;;;;;9.07;2.53;;;23.30;82.50;;;;;;5031521;28;20069;-77
2022/05/16 11:49:15;;;;;;;4.47;2.20;;;23.40;85.10;;;;;;5029194;28;20044;-75
2022/05/16 11:52:07;;;;;;;4.38;2.30;;;23.40;86.50;;;;;;5026796;28;20080;-75
2022/05/16 11:54:50;;;;;;;6.40;2.20;;;23.50;89.80;;;;;;5011909;28;20046;-75
2022/05/16 12:03:07;;;;;;;6.85;2.60;;;23.80;90.10;;;;;;5019653;28;20064;-74
2022/05/16 12:05:40;;;;;;;9.88;2.47;;;24.00;90.50;;;;;;5016131;28;20045;-74
2022/05/16 12:08:24;;;;;;;4.82;2.10;;;24.00;85.60;;;;;;5007871;28;20096;-75
2022/05/16 12:10:58;;;;;;;6.95;2.10;;;24.00;83.90;;;;;;5022025;28;20052;-75
2022/05/16 12:13:29;;;;;;;6.28;2.97;;;24.20;84.20;;;;;;5023647;28;20045;-74
2022/05/16 12:16:19;;;;;;;7.50;3.08;;;24.00;87.30;;;;;;5016497;28;20133;-76
2022/05/16 12:19:13;;;;;;;7.28;3.15;;;24.00;84.20;;;;;;5021360;28;20908;-75
2022/05/16 12:21:39;;;;;;;7.78;2.42;;;23.80;86.70;;;;;;5021377;28;20052;-76
2022/05/16 12:24:07;;;;;;;5.68;2.60;;;23.80;85.90;;;;;;5020402;28;20037;-78
2022/05/16 12:26:58;;;;;;;6.97;3.22;;;23.70;86.30;;;;;;5022566;28;20053;-77
2022/05/16 12:29:32;;;;;;;6.22;3.10;;;23.80;89.70;;;;;;5018524;28;20053;-76
2022/05/16 12:31:58;;;;;;;7.90;3.33;;;23.70;91.00;;;;;;5024886;28;20094;-76
2022/05/16 12:34:29;;;;;;;9.43;3.72;;;23.70;90.60;;;;;;5024409;28;20636;-77
2022/05/16 12:36:56;;;;;;;10.60;3.00;;;23.70;91.10;;;;;;5023988;28;20042;-76
2022/05/16 12:39:42;;;;;;;6.93;2.92;;;23.70;91.90;;;;;;5022332;28;20037;-76
2022/05/16 12:42:23;;;;;;;8.30;3.50;;;23.70;93.50;;;;;;5029120;28;20052;-76
2022/05/16 12:44:57;;;;;;;8.30;2.88;;;23.60;93.30;;;;;;5023666;28;20033;-76
2022/05/16 12:47:41;;;;;;;8.82;2.85;;;23.70;94.00;;;;;;5018165;28;20077;-76
2022/05/16 12:50:37;;;;;;;8.35;3.28;;;23.70;94.00;;;;;;5023406;28;20042;-76
2022/05/16 12:53:38;;;;;;;5.90;3.33;;;23.70;94.40;;;;;;5020044;28;20129;-76
2022/05/16 12:56:12;;;;;;;9.80;3.10;;;23.60;95.40;;;;;;5022384;28;20037;-76
2022/05/16 12:58:46;;;;;;;7.32;3.30;;;23.50;97.30;;;;;;5026777;28;20124;-76
2022/05/16 13:01:46;;;;;;;8.27;3.17;;;23.50;98.50;;;;;;5028682;28;20060;-77
2022/05/16 13:04:20;;;;;;;9.82;3.05;;;23.60;98.30;;;;;;4943230;28;20056;-77
2022/05/16 13:07:02;;;;;;;8.15;3.67;;;23.70;99.50;;;;;;5027008;28;20068;-76
2022/05/16 13:09:34;;;;;;;10.68;3.10;;;23.70;99.20;;;;;;5027783;28;20056;-75
2022/05/16 13:12:24;;;;;;;10.70;3.83;;;23.80;96.70;;;;;;5026610;28;20065;-75
2022/05/16 13:15:08;;;;;;;12.70;3.90;;;23.80;96.80;;;;;;5028249;28;20551;-76
2022/05/16 13:17:49;;;;;;;8.18;3.40;;;23.70;96.10;;;;;;5021374;28;20054;-77
2022/05/16 13:20:24;;;;;;;6.72;3.47;;;23.80;98.00;;;;;;5030128;28;20045;-76
2022/05/16 13:22:50;;;;;;;7.15;3.17;;;23.70;98.30;;;;;;5040321;28;20507;-76
2022/05/16 13:25:18;;;;;;;9.48;3.42;;;23.70;97.50;;;;;;5043905;28;20041;-76
2022/05/16 13:30:45;;;;;;;6.75;3.75;;;23.60;99.90;;;;;;5021814;28;20046;-76
2022/05/16 13:33:31;;;;;;;15.48;5.32;;;23.50;99.60;;;;;;5022499;28;20049;-76
2022/05/16 13:36:22;;;;;;;8.05;4.50;;;23.40;98.20;;;;;;5027293;28;20053;-77
2022/05/16 13:38:55;;;;;;;16.25;4.65;;;23.40;98.20;;;;;;5028924;28;20124;-77
2022/05/16 13:41:23;;;;;;;8.00;4.03;;;23.20;99.20;;;;;;5027624;28;20055;-76
2022/05/16 13:43:50;;;;;;;12.73;5.47;;;23.10;98.80;;;;;;5026641;28;20041;-76